sensor_id;sensor_type;location;lat;lon;timestamp;P1;durP1;ratioP1;P2;durP2;ratioP2
31081;SDS011;17737;52.586;13.284;2022-10-28T00:00:48;0.32;;;0.32;;
31081;SDS011;17737;52.586;13.284;2022-10-28T00:03:17;0.40;;;0.40;;
31081;SDS011;17737;52.586;13.284;2022-10-28T00:05:45;0.40;;;0.40;;
31081;SDS011;17737;52.586;13.284;2022-10-28T00:08:13;0.32;;;0.32;;
31081;SDS011;17737;52.586;13.284;2022-10-28T00:10:40;0.35;;;0.35;;
31081;SDS011;17737;52.586;13.284;2022-10-28T00:13:09;0.40;;;0.40;;
31081;SDS011;17737;52.586;13.284;2022-10-28T00:15:37;0.40;;;0.40;;
31081;SDS011;17737;52.586;13.284;2022-10-28T00:18:05;0.30;;;0.30;;
31081;SDS011;17737;52.586;13.284;2022-10-28T00:20:32;0.38;;;0.38;;
31081;SDS011;17737;52.586;13.284;2022-10-28T00:23:00;0.30;;;0.30;;
31081;SDS011;17737;52.586;13.284;2022-10-28T00:25:28;0.20;;;0.20;;
31081;SDS011;17737;52.586;13.284;2022-10-28T00:27:55;0.30;;;0.30;;
31081;SDS011;17737;52.586;13.284;2022-10-28T00:30:24;0.20;;;0.20;;
31081;SDS011;17737;52.586;13.284;2022-10-28T00:32:52;0.30;;;0.30;;
31081;SDS011;17737;52.586;13.284;2022-10-28T00:35:20;0.25;;;0.25;;
31081;SDS011;17737;52.586;13.284;2022-10-28T00:37:48;0.20;;;0.20;;
31081;SDS011;17737;52.586;13.284;2022-10-28T00:40:19;0.30;;;0.30;;
31081;SDS011;17737;52.586;13.284;2022-10-28T00:42:47;0.20;;;0.20;;
31081;SDS011;17737;52.586;13.284;2022-10-28T00:45:15;0.30;;;0.30;;
31081;SDS011;17737;52.586;13.284;2022-10-28T00:47:46;0.40;;;0.40;;
31081;SDS011;17737;52.586;13.284;2022-10-28T00:50:24;0.30;;;0.30;;
31081;SDS011;17737;52.586;13.284;2022-10-28T00:53:07;0.30;;;0.30;;
31081;SDS011;17737;52.586;13.284;2022-10-28T00:55:37;0.30;;;0.30;;
31081;SDS011;17737;52.586;13.284;2022-10-28T00:58:05;0.30;;;0.30;;
31081;SDS011;17737;52.586;13.284;2022-10-28T01:00:34;0.20;;;0.20;;
31081;SDS011;17737;52.586;13.284;2022-10-28T01:03:05;0.20;;;0.20;;
31081;SDS011;17737;52.586;13.284;2022-10-28T01:05:33;0.30;;;0.30;;
31081;SDS011;17737;52.586;13.284;2022-10-28T01:08:04;0.30;;;0.30;;
31081;SDS011;17737;52.586;13.284;2022-10-28T01:10:40;0.30;;;0.30;;
31081;SDS011;17737;52.586;13.284;2022-10-28T01:13:23;0.40;;;0.40;;
31081;SDS011;17737;52.586;13.284;2022-10-28T01:18:37;0.40;;;0.40;;
31081;SDS011;17737;52.586;13.284;2022-10-28T01:21:21;0.30;;;0.30;;
31081;SDS011;17737;52.586;13.284;2022-10-28T01:24:15;0.20;;;0.20;;
31081;SDS011;17737;52.586;13.284;2022-10-28T01:26:59;0.30;;;0.30;;
31081;SDS011;17737;52.586;13.284;2022-10-28T01:35:32;0.35;;;0.35;;
31081;SDS011;17737;52.586;13.284;2022-10-28T01:38:10;0.20;;;0.20;;
31081;SDS011;17737;52.586;13.284;2022-10-28T01:40:46;0.40;;;0.40;;
31081;SDS011;17737;52.586;13.284;2022-10-28T01:43:22;0.40;;;0.40;;
31081;SDS011;17737;52.586;13.284;2022-10-28T01:45:56;0.40;;;0.40;;
31081;SDS011;17737;52.586;13.284;2022-10-28T01:48:29;0.30;;;0.30;;
31081;SDS011;17737;52.586;13.284;2022-10-28T01:51:06;0.20;;;0.20;;
31081;SDS011;17737;52.586;13.284;2022-10-28T01:53:38;0.30;;;0.30;;
31081;SDS011;17737;52.586;13.284;2022-10-28T01:56:10;0.20;;;0.20;;
31081;SDS011;17737;52.586;13.284;2022-10-28T01:58:42;0.30;;;0.30;;
31081;SDS011;17737;52.586;13.284;2022-10-28T02:01:11;0.40;;;0.40;;
31081;SDS011;17737;52.586;13.284;2022-10-28T02:03:41;0.30;;;0.30;;
31081;SDS011;17737;52.586;13.284;2022-10-28T02:06:13;0.32;;;0.32;;
31081;SDS011;17737;52.586;13.284;2022-10-28T02:08:48;0.38;;;0.38;;
31081;SDS011;17737;52.586;13.284;2022-10-28T02:14:32;0.43;;;0.43;;
31081;SDS011;17737;52.586;13.284;2022-10-28T02:17:23;0.30;;;0.30;;
31081;SDS011;17737;52.586;13.284;2022-10-28T02:19:59;0.40;;;0.40;;
31081;SDS011;17737;52.586;13.284;2022-10-28T02:22:38;0.38;;;0.38;;
31081;SDS011;17737;52.586;13.284;2022-10-28T02:25:13;0.30;;;0.30;;
31081;SDS011;17737;52.586;13.284;2022-10-28T02:27:46;0.40;;;0.40;;
31081;SDS011;17737;52.586;13.284;2022-10-28T02:30:21;0.30;;;0.30;;
31081;SDS011;17737;52.586;13.284;2022-10-28T02:32:52;0.30;;;0.30;;
31081;SDS011;17737;52.586;13.284;2022-10-28T02:35:27;0.30;;;0.30;;
31081;SDS011;17737;52.586;13.284;2022-10-28T02:37:58;0.43;;;0.43;;
31081;SDS011;17737;52.586;13.284;2022-10-28T02:40:29;0.30;;;0.30;;
31081;SDS011;17737;52.586;13.284;2022-10-28T02:43:01;0.40;;;0.40;;
31081;SDS011;17737;52.586;13.284;2022-10-28T02:45:33;0.40;;;0.40;;
31081;SDS011;17737;52.586;13.284;2022-10-28T02:48:06;0.40;;;0.40;;
31081;SDS011;17737;52.586;13.284;2022-10-28T02:50:38;0.38;;;0.38;;
31081;SDS011;17737;52.586;13.284;2022-10-28T02:53:14;0.40;;;0.40;;
31081;SDS011;17737;52.586;13.284;2022-10-28T02:55:44;0.40;;;0.40;;
31081;SDS011;17737;52.586;13.284;2022-10-28T02:58:17;0.30;;;0.30;;
31081;SDS011;17737;52.586;13.284;2022-10-28T03:00:45;0.30;;;0.30;;
31081;SDS011;17737;52.586;13.284;2022-10-28T03:03:14;0.38;;;0.38;;
31081;SDS011;17737;52.586;13.284;2022-10-28T03:05:44;0.30;;;0.30;;
31081;SDS011;17737;52.586;13.284;2022-10-28T03:08:11;0.30;;;0.30;;
31081;SDS011;17737;52.586;13.284;2022-10-28T03:10:39;0.30;;;0.30;;
31081;SDS011;17737;52.586;13.284;2022-10-28T03:13:07;0.32;;;0.32;;
31081;SDS011;17737;52.586;13.284;2022-10-28T03:15:34;0.40;;;0.40;;
31081;SDS011;17737;52.586;13.284;2022-10-28T03:18:02;0.40;;;0.40;;
31081;SDS011;17737;52.586;13.284;2022-10-28T03:20:30;0.40;;;0.40;;
31081;SDS011;17737;52.586;13.284;2022-10-28T03:22:59;0.40;;;0.40;;
31081;SDS011;17737;52.586;13.284;2022-10-28T03:25:26;0.40;;;0.40;;
31081;SDS011;17737;52.586;13.284;2022-10-28T03:27:54;0.35;;;0.35;;
31081;SDS011;17737;52.586;13.284;2022-10-28T03:30:22;0.40;;;0.40;;
31081;SDS011;17737;52.586;13.284;2022-10-28T03:32:49;0.40;;;0.40;;
31081;SDS011;17737;52.586;13.284;2022-10-28T03:35:17;0.40;;;0.40;;
31081;SDS011;17737;52.586;13.284;2022-10-28T03:37:45;0.40;;;0.40;;
31081;SDS011;17737;52.586;13.284;2022-10-28T03:40:14;0.40;;;0.40;;
31081;SDS011;17737;52.586;13.284;2022-10-28T03:42:42;0.50;;;0.50;;
31081;SDS011;17737;52.586;13.284;2022-10-28T03:45:10;0.40;;;0.40;;
31081;SDS011;17737;52.586;13.284;2022-10-28T03:47:38;0.40;;;0.40;;
31081;SDS011;17737;52.586;13.284;2022-10-28T03:50:06;0.50;;;0.50;;
31081;SDS011;17737;52.586;13.284;2022-10-28T03:52:34;0.30;;;0.30;;
31081;SDS011;17737;52.586;13.284;2022-10-28T03:55:02;0.40;;;0.40;;
31081;SDS011;17737;52.586;13.284;2022-10-28T03:57:32;0.30;;;0.30;;
31081;SDS011;17737;52.586;13.284;2022-10-28T04:00:00;0.40;;;0.40;;
31081;SDS011;17737;52.586;13.284;2022-10-28T04:02:28;0.30;;;0.30;;
31081;SDS011;17737;52.586;13.284;2022-10-28T04:04:55;0.40;;;0.40;;
31081;SDS011;17737;52.586;13.284;2022-10-28T04:07:23;0.43;;;0.43;;
31081;SDS011;17737;52.586;13.284;2022-10-28T04:09:51;0.40;;;0.40;;
31081;SDS011;17737;52.586;13.284;2022-10-28T04:12:18;0.30;;;0.30;;
31081;SDS011;17737;52.586;13.284;2022-10-28T04:14:47;0.30;;;0.30;;
31081;SDS011;17737;52.586;13.284;2022-10-28T04:17:15;0.40;;;0.40;;
31081;SDS011;17737;52.586;13.284;2022-10-28T04:19:43;0.45;;;0.45;;
31081;SDS011;17737;52.586;13.284;2022-10-28T04:22:10;0.38;;;0.38;;
31081;SDS011;17737;52.586;13.284;2022-10-28T04:24:38;0.40;;;0.40;;
31081;SDS011;17737;52.586;13.284;2022-10-28T04:27:05;0.50;;;0.50;;
31081;SDS011;17737;52.586;13.284;2022-10-28T04:29:33;0.30;;;0.30;;
31081;SDS011;17737;52.586;13.284;2022-10-28T04:32:02;0.40;;;0.40;;
31081;SDS011;17737;52.586;13.284;2022-10-28T04:34:30;0.50;;;0.50;;
31081;SDS011;17737;52.586;13.284;2022-10-28T04:36:58;0.30;;;0.30;;
31081;SDS011;17737;52.586;13.284;2022-10-28T04:39:25;0.40;;;0.40;;
31081;SDS011;17737;52.586;13.284;2022-10-28T04:41:53;0.40;;;0.40;;
31081;SDS011;17737;52.586;13.284;2022-10-28T04:44:21;0.30;;;0.30;;
31081;SDS011;17737;52.586;13.284;2022-10-28T04:46:48;0.32;;;0.32;;
31081;SDS011;17737;52.586;13.284;2022-10-28T04:49:17;0.30;;;0.30;;
31081;SDS011;17737;52.586;13.284;2022-10-28T04:51:45;0.40;;;0.40;;
31081;SDS011;17737;52.586;13.284;2022-10-28T04:54:17;0.30;;;0.30;;
31081;SDS011;17737;52.586;13.284;2022-10-28T04:56:45;0.38;;;0.38;;
31081;SDS011;17737;52.586;13.284;2022-10-28T04:59:13;0.40;;;0.40;;
31081;SDS011;17737;52.586;13.284;2022-10-28T05:01:40;0.40;;;0.40;;
31081;SDS011;17737;52.586;13.284;2022-10-28T05:04:08;0.25;;;0.25;;
31081;SDS011;17737;52.586;13.284;2022-10-28T05:06:38;0.40;;;0.40;;
31081;SDS011;17737;52.586;13.284;2022-10-28T05:09:05;0.60;;;0.60;;
31081;SDS011;17737;52.586;13.284;2022-10-28T05:11:33;0.40;;;0.40;;
31081;SDS011;17737;52.586;13.284;2022-10-28T05:14:01;0.50;;;0.50;;
31081;SDS011;17737;52.586;13.284;2022-10-28T05:16:28;0.40;;;0.40;;
31081;SDS011;17737;52.586;13.284;2022-10-28T05:18:56;0.30;;;0.30;;
31081;SDS011;17737;52.586;13.284;2022-10-28T05:21:24;0.30;;;0.30;;
31081;SDS011;17737;52.586;13.284;2022-10-28T05:23:54;0.40;;;0.40;;
31081;SDS011;17737;52.586;13.284;2022-10-28T05:26:21;0.30;;;0.30;;
31081;SDS011;17737;52.586;13.284;2022-10-28T05:28:49;0.40;;;0.40;;
31081;SDS011;17737;52.586;13.284;2022-10-28T05:31:17;0.35;;;0.35;;
31081;SDS011;17737;52.586;13.284;2022-10-28T05:33:45;0.30;;;0.30;;
31081;SDS011;17737;52.586;13.284;2022-10-28T05:36:12;0.40;;;0.40;;
31081;SDS011;17737;52.586;13.284;2022-10-28T05:38:40;0.30;;;0.30;;
31081;SDS011;17737;52.586;13.284;2022-10-28T05:41:11;0.30;;;0.30;;
31081;SDS011;17737;52.586;13.284;2022-10-28T05:43:39;0.40;;;0.40;;
31081;SDS011;17737;52.586;13.284;2022-10-28T05:46:07;0.32;;;0.32;;
31081;SDS011;17737;52.586;13.284;2022-10-28T05:48:35;0.40;;;0.40;;
31081;SDS011;17737;52.586;13.284;2022-10-28T05:51:03;0.30;;;0.30;;
31081;SDS011;17737;52.586;13.284;2022-10-28T05:53:31;0.43;;;0.40;;
31081;SDS011;17737;52.586;13.284;2022-10-28T05:55:59;0.30;;;0.30;;
31081;SDS011;17737;52.586;13.284;2022-10-28T05:58:28;0.30;;;0.30;;
31081;SDS011;17737;52.586;13.284;2022-10-28T06:00:55;0.40;;;0.40;;
31081;SDS011;17737;52.586;13.284;2022-10-28T06:03:23;0.30;;;0.30;;
31081;SDS011;17737;52.586;13.284;2022-10-28T06:05:56;0.30;;;0.30;;
31081;SDS011;17737;52.586;13.284;2022-10-28T06:08:24;0.40;;;0.40;;
31081;SDS011;17737;52.586;13.284;2022-10-28T06:10:53;0.52;;;0.40;;
31081;SDS011;17737;52.586;13.284;2022-10-28T06:13:21;0.32;;;0.32;;
31081;SDS011;17737;52.586;13.284;2022-10-28T06:15:51;0.20;;;0.20;;
31081;SDS011;17737;52.586;13.284;2022-10-28T06:18:19;0.20;;;0.20;;
31081;SDS011;17737;52.586;13.284;2022-10-28T06:20:50;0.30;;;0.30;;
31081;SDS011;17737;52.586;13.284;2022-10-28T06:23:18;0.30;;;0.30;;
31081;SDS011;17737;52.586;13.284;2022-10-28T06:25:46;0.52;;;0.30;;
31081;SDS011;17737;52.586;13.284;2022-10-28T06:28:14;0.30;;;0.30;;
31081;SDS011;17737;52.586;13.284;2022-10-28T06:30:42;0.40;;;0.40;;
31081;SDS011;17737;52.586;13.284;2022-10-28T06:33:11;0.40;;;0.40;;
31081;SDS011;17737;52.586;13.284;2022-10-28T06:35:39;0.40;;;0.40;;
31081;SDS011;17737;52.586;13.284;2022-10-28T06:38:06;0.40;;;0.40;;
31081;SDS011;17737;52.586;13.284;2022-10-28T06:40:36;0.43;;;0.43;;
31081;SDS011;17737;52.586;13.284;2022-10-28T06:43:04;0.30;;;0.30;;
31081;SDS011;17737;52.586;13.284;2022-10-28T06:45:34;0.43;;;0.40;;
31081;SDS011;17737;52.586;13.284;2022-10-28T06:48:02;0.30;;;0.30;;
31081;SDS011;17737;52.586;13.284;2022-10-28T06:53:01;0.40;;;0.40;;
31081;SDS011;17737;52.586;13.284;2022-10-28T06:55:29;0.20;;;0.20;;
31081;SDS011;17737;52.586;13.284;2022-10-28T06:57:57;0.40;;;0.40;;
31081;SDS011;17737;52.586;13.284;2022-10-28T07:00:26;0.30;;;0.30;;
31081;SDS011;17737;52.586;13.284;2022-10-28T07:03:00;0.30;;;0.30;;
31081;SDS011;17737;52.586;13.284;2022-10-28T07:05:27;0.40;;;0.40;;
31081;SDS011;17737;52.586;13.284;2022-10-28T07:07:57;0.38;;;0.38;;
31081;SDS011;17737;52.586;13.284;2022-10-28T07:10:24;0.30;;;0.30;;
31081;SDS011;17737;52.586;13.284;2022-10-28T07:12:52;0.30;;;0.30;;
31081;SDS011;17737;52.586;13.284;2022-10-28T07:15:20;0.32;;;0.32;;
31081;SDS011;17737;52.586;13.284;2022-10-28T07:17:50;0.30;;;0.30;;
31081;SDS011;17737;52.586;13.284;2022-10-28T07:20:18;0.40;;;0.40;;
31081;SDS011;17737;52.586;13.284;2022-10-28T07:22:46;0.45;;;0.43;;
31081;SDS011;17737;52.586;13.284;2022-10-28T07:25:16;0.30;;;0.30;;
31081;SDS011;17737;52.586;13.284;2022-10-28T07:27:43;0.40;;;0.40;;
31081;SDS011;17737;52.586;13.284;2022-10-28T07:30:11;0.32;;;0.32;;
31081;SDS011;17737;52.586;13.284;2022-10-28T07:32:39;0.50;;;0.50;;
31081;SDS011;17737;52.586;13.284;2022-10-28T07:35:07;0.40;;;0.40;;
31081;SDS011;17737;52.586;13.284;2022-10-28T07:37:36;0.30;;;0.30;;
31081;SDS011;17737;52.586;13.284;2022-10-28T07:40:05;0.40;;;0.40;;
31081;SDS011;17737;52.586;13.284;2022-10-28T07:42:34;0.30;;;0.30;;
31081;SDS011;17737;52.586;13.284;2022-10-28T07:45:02;0.40;;;0.30;;
31081;SDS011;17737;52.586;13.284;2022-10-28T07:47:34;0.30;;;0.30;;
31081;SDS011;17737;52.586;13.284;2022-10-28T07:50:15;0.30;;;0.30;;
31081;SDS011;17737;52.586;13.284;2022-10-28T07:52:45;0.20;;;0.20;;
31081;SDS011;17737;52.586;13.284;2022-10-28T07:55:13;0.20;;;0.20;;
31081;SDS011;17737;52.586;13.284;2022-10-28T07:57:43;0.38;;;0.38;;
31081;SDS011;17737;52.586;13.284;2022-10-28T08:00:11;0.38;;;0.30;;
31081;SDS011;17737;52.586;13.284;2022-10-28T08:02:39;0.30;;;0.30;;
31081;SDS011;17737;52.586;13.284;2022-10-28T08:05:07;0.20;;;0.20;;
31081;SDS011;17737;52.586;13.284;2022-10-28T08:07:35;0.20;;;0.20;;
31081;SDS011;17737;52.586;13.284;2022-10-28T08:10:04;0.20;;;0.20;;
31081;SDS011;17737;52.586;13.284;2022-10-28T08:12:33;0.30;;;0.30;;
31081;SDS011;17737;52.586;13.284;2022-10-28T08:15:02;0.30;;;0.30;;
31081;SDS011;17737;52.586;13.284;2022-10-28T08:17:30;0.30;;;0.30;;
31081;SDS011;17737;52.586;13.284;2022-10-28T08:19:58;0.20;;;0.20;;
31081;SDS011;17737;52.586;13.284;2022-10-28T08:22:26;0.20;;;0.20;;
31081;SDS011;17737;52.586;13.284;2022-10-28T08:24:53;0.20;;;0.20;;
31081;SDS011;17737;52.586;13.284;2022-10-28T08:27:21;0.30;;;0.30;;
31081;SDS011;17737;52.586;13.284;2022-10-28T08:29:49;0.20;;;0.20;;
31081;SDS011;17737;52.586;13.284;2022-10-28T08:32:20;0.25;;;0.25;;
31081;SDS011;17737;52.586;13.284;2022-10-28T08:34:47;0.30;;;0.30;;
31081;SDS011;17737;52.586;13.284;2022-10-28T08:37:15;0.17;;;0.17;;
31081;SDS011;17737;52.586;13.284;2022-10-28T08:39:43;0.30;;;0.30;;
31081;SDS011;17737;52.586;13.284;2022-10-28T08:42:23;0.22;;;0.22;;
31081;SDS011;17737;52.586;13.284;2022-10-28T08:45:13;0.20;;;0.20;;
31081;SDS011;17737;52.586;13.284;2022-10-28T08:48:00;0.28;;;0.28;;
31081;SDS011;17737;52.586;13.284;2022-10-28T08:50:41;0.20;;;0.20;;
31081;SDS011;17737;52.586;13.284;2022-10-28T08:53:13;0.20;;;0.20;;
31081;SDS011;17737;52.586;13.284;2022-10-28T08:55:45;0.20;;;0.20;;
31081;SDS011;17737;52.586;13.284;2022-10-28T08:58:17;0.25;;;0.25;;
31081;SDS011;17737;52.586;13.284;2022-10-28T09:00:50;0.30;;;0.30;;
31081;SDS011;17737;52.586;13.284;2022-10-28T09:03:22;0.30;;;0.30;;
31081;SDS011;17737;52.586;13.284;2022-10-28T09:05:56;0.30;;;0.30;;
31081;SDS011;17737;52.586;13.284;2022-10-28T09:08:29;0.20;;;0.20;;
31081;SDS011;17737;52.586;13.284;2022-10-28T09:11:03;0.35;;;0.35;;
31081;SDS011;17737;52.586;13.284;2022-10-28T09:14:06;0.30;;;0.30;;
31081;SDS011;17737;52.586;13.284;2022-10-28T09:16:43;0.23;;;0.23;;
31081;SDS011;17737;52.586;13.284;2022-10-28T09:19:18;0.30;;;0.30;;
31081;SDS011;17737;52.586;13.284;2022-10-28T09:21:56;0.30;;;0.30;;
31081;SDS011;17737;52.586;13.284;2022-10-28T09:24:44;0.20;;;0.20;;
31081;SDS011;17737;52.586;13.284;2022-10-28T09:27:20;0.20;;;0.20;;
31081;SDS011;17737;52.586;13.284;2022-10-28T09:30:01;0.30;;;0.30;;
31081;SDS011;17737;52.586;13.284;2022-10-28T09:32:46;0.30;;;0.30;;
31081;SDS011;17737;52.586;13.284;2022-10-28T09:35:23;0.20;;;0.20;;
31081;SDS011;17737;52.586;13.284;2022-10-28T09:37:55;0.25;;;0.25;;
31081;SDS011;17737;52.586;13.284;2022-10-28T09:40:39;0.35;;;0.35;;
31081;SDS011;17737;52.586;13.284;2022-10-28T09:43:20;0.20;;;0.20;;
31081;SDS011;17737;52.586;13.284;2022-10-28T09:45:52;0.20;;;0.20;;
31081;SDS011;17737;52.586;13.284;2022-10-28T09:48:26;0.10;;;0.10;;
31081;SDS011;17737;52.586;13.284;2022-10-28T09:50:57;0.20;;;0.20;;
31081;SDS011;17737;52.586;13.284;2022-10-28T09:53:28;0.20;;;0.20;;
31081;SDS011;17737;52.586;13.284;2022-10-28T09:56:02;0.20;;;0.20;;
31081;SDS011;17737;52.586;13.284;2022-10-28T09:58:31;0.28;;;0.28;;
31081;SDS011;17737;52.586;13.284;2022-10-28T10:01:00;0.25;;;0.25;;
31081;SDS011;17737;52.586;13.284;2022-10-28T10:03:30;0.30;;;0.30;;
31081;SDS011;17737;52.586;13.284;2022-10-28T10:06:01;0.20;;;0.20;;
31081;SDS011;17737;52.586;13.284;2022-10-28T10:08:35;0.20;;;0.20;;
31081;SDS011;17737;52.586;13.284;2022-10-28T10:11:06;0.20;;;0.20;;
31081;SDS011;17737;52.586;13.284;2022-10-28T10:13:40;0.28;;;0.28;;
31081;SDS011;17737;52.586;13.284;2022-10-28T10:16:12;0.30;;;0.30;;
31081;SDS011;17737;52.586;13.284;2022-10-28T10:18:43;0.30;;;0.30;;
31081;SDS011;17737;52.586;13.284;2022-10-28T10:21:17;0.30;;;0.30;;
31081;SDS011;17737;52.586;13.284;2022-10-28T10:24:28;0.20;;;0.20;;
31081;SDS011;17737;52.586;13.284;2022-10-28T10:26:59;0.20;;;0.20;;
31081;SDS011;17737;52.586;13.284;2022-10-28T10:29:28;0.20;;;0.20;;
31081;SDS011;17737;52.586;13.284;2022-10-28T10:32:07;0.30;;;0.30;;
31081;SDS011;17737;52.586;13.284;2022-10-28T10:34:43;0.40;;;0.40;;
31081;SDS011;17737;52.586;13.284;2022-10-28T10:37:17;0.38;;;0.38;;
31081;SDS011;17737;52.586;13.284;2022-10-28T10:39:57;0.20;;;0.20;;
31081;SDS011;17737;52.586;13.284;2022-10-28T10:42:27;0.22;;;0.22;;
31081;SDS011;17737;52.586;13.284;2022-10-28T10:44:57;0.20;;;0.20;;
31081;SDS011;17737;52.586;13.284;2022-10-28T10:47:26;0.20;;;0.20;;
31081;SDS011;17737;52.586;13.284;2022-10-28T10:52:51;0.30;;;0.30;;
31081;SDS011;17737;52.586;13.284;2022-10-28T10:55:24;0.17;;;0.17;;
31081;SDS011;17737;52.586;13.284;2022-10-28T10:57:58;0.30;;;0.30;;
31081;SDS011;17737;52.586;13.284;2022-10-28T11:00:29;0.20;;;0.20;;
31081;SDS011;17737;52.586;13.284;2022-10-28T11:03:02;0.20;;;0.20;;
31081;SDS011;17737;52.586;13.284;2022-10-28T11:05:33;0.20;;;0.20;;
31081;SDS011;17737;52.586;13.284;2022-10-28T11:08:05;0.30;;;0.30;;
31081;SDS011;17737;52.586;13.284;2022-10-28T11:11:01;0.25;;;0.25;;
31081;SDS011;17737;52.586;13.284;2022-10-28T11:13:30;0.20;;;0.20;;
31081;SDS011;17737;52.586;13.284;2022-10-28T11:16:00;0.30;;;0.30;;
31081;SDS011;17737;52.586;13.284;2022-10-28T11:18:36;0.20;;;0.20;;
31081;SDS011;17737;52.586;13.284;2022-10-28T11:21:09;0.20;;;0.20;;
31081;SDS011;17737;52.586;13.284;2022-10-28T11:23:48;0.20;;;0.20;;
31081;SDS011;17737;52.586;13.284;2022-10-28T11:26:24;0.35;;;0.35;;
31081;SDS011;17737;52.586;13.284;2022-10-28T11:28:57;0.20;;;0.20;;
31081;SDS011;17737;52.586;13.284;2022-10-28T11:34:31;0.20;;;0.20;;
31081;SDS011;17737;52.586;13.284;2022-10-28T11:37:12;0.20;;;0.20;;
31081;SDS011;17737;52.586;13.284;2022-10-28T11:39:52;0.28;;;0.28;;
31081;SDS011;17737;52.586;13.284;2022-10-28T11:42:32;0.40;;;0.40;;
31081;SDS011;17737;52.586;13.284;2022-10-28T11:45:09;0.20;;;0.20;;
31081;SDS011;17737;52.586;13.284;2022-10-28T11:47:59;0.20;;;0.20;;
31081;SDS011;17737;52.586;13.284;2022-10-28T11:50:35;0.20;;;0.20;;
31081;SDS011;17737;52.586;13.284;2022-10-28T11:53:20;0.20;;;0.20;;
31081;SDS011;17737;52.586;13.284;2022-10-28T11:56:08;0.20;;;0.20;;
31081;SDS011;17737;52.586;13.284;2022-10-28T11:58:45;0.20;;;0.20;;
31081;SDS011;17737;52.586;13.284;2022-10-28T12:01:29;0.30;;;0.30;;
31081;SDS011;17737;52.586;13.284;2022-10-28T12:04:11;0.25;;;0.25;;
31081;SDS011;17737;52.586;13.284;2022-10-28T12:06:58;0.30;;;0.30;;
31081;SDS011;17737;52.586;13.284;2022-10-28T12:09:40;0.22;;;0.22;;
31081;SDS011;17737;52.586;13.284;2022-10-28T12:12:25;0.20;;;0.20;;
31081;SDS011;17737;52.586;13.284;2022-10-28T12:14:58;0.20;;;0.20;;
31081;SDS011;17737;52.586;13.284;2022-10-28T12:17:38;0.20;;;0.20;;
31081;SDS011;17737;52.586;13.284;2022-10-28T12:20:15;0.20;;;0.20;;
31081;SDS011;17737;52.586;13.284;2022-10-28T12:22:50;0.20;;;0.20;;
31081;SDS011;17737;52.586;13.284;2022-10-28T12:25:21;0.20;;;0.20;;
31081;SDS011;17737;52.586;13.284;2022-10-28T12:27:54;0.20;;;0.20;;
31081;SDS011;17737;52.586;13.284;2022-10-28T12:30:25;0.20;;;0.20;;
31081;SDS011;17737;52.586;13.284;2022-10-28T12:32:56;0.20;;;0.20;;
31081;SDS011;17737;52.586;13.284;2022-10-28T12:35:28;0.20;;;0.20;;
31081;SDS011;17737;52.586;13.284;2022-10-28T12:37:59;0.20;;;0.20;;
31081;SDS011;17737;52.586;13.284;2022-10-28T12:40:34;0.20;;;0.20;;
31081;SDS011;17737;52.586;13.284;2022-10-28T12:43:10;0.15;;;0.15;;
31081;SDS011;17737;52.586;13.284;2022-10-28T12:45:41;0.20;;;0.20;;
31081;SDS011;17737;52.586;13.284;2022-10-28T12:48:13;0.13;;;0.13;;
31081;SDS011;17737;52.586;13.284;2022-10-28T12:50:48;0.20;;;0.20;;
31081;SDS011;17737;52.586;13.284;2022-10-28T12:53:23;0.10;;;0.10;;
31081;SDS011;17737;52.586;13.284;2022-10-28T12:55:59;0.20;;;0.20;;
31081;SDS011;17737;52.586;13.284;2022-10-28T13:00:59;0.20;;;0.20;;
31081;SDS011;17737;52.586;13.284;2022-10-28T13:03:30;0.10;;;0.10;;
31081;SDS011;17737;52.586;13.284;2022-10-28T13:06:03;0.20;;;0.20;;
31081;SDS011;17737;52.586;13.284;2022-10-28T13:08:57;0.10;;;0.10;;
31081;SDS011;17737;52.586;13.284;2022-10-28T13:11:46;0.22;;;0.22;;
31081;SDS011;17737;52.586;13.284;2022-10-28T13:14:33;0.20;;;0.20;;
31081;SDS011;17737;52.586;13.284;2022-10-28T13:17:22;0.20;;;0.20;;
31081;SDS011;17737;52.586;13.284;2022-10-28T13:20:01;0.10;;;0.10;;
31081;SDS011;17737;52.586;13.284;2022-10-28T13:22:42;0.28;;;0.28;;
31081;SDS011;17737;52.586;13.284;2022-10-28T13:25:30;0.22;;;0.22;;
31081;SDS011;17737;52.586;13.284;2022-10-28T13:28:18;0.20;;;0.20;;
31081;SDS011;17737;52.586;13.284;2022-10-28T13:30:55;0.20;;;0.20;;
31081;SDS011;17737;52.586;13.284;2022-10-28T13:33:25;0.13;;;0.13;;
31081;SDS011;17737;52.586;13.284;2022-10-28T13:38:34;0.20;;;0.20;;
31081;SDS011;17737;52.586;13.284;2022-10-28T13:41:10;0.10;;;0.10;;
31081;SDS011;17737;52.586;13.284;2022-10-28T13:43:57;0.20;;;0.20;;
31081;SDS011;17737;52.586;13.284;2022-10-28T13:56:15;0.20;;;0.20;;
31081;SDS011;17737;52.586;13.284;2022-10-28T13:59:05;0.28;;;0.28;;
31081;SDS011;17737;52.586;13.284;2022-10-28T14:04:33;0.10;;;0.10;;
31081;SDS011;17737;52.586;13.284;2022-10-28T14:09:52;0.10;;;0.10;;
31081;SDS011;17737;52.586;13.284;2022-10-28T14:12:24;0.15;;;0.15;;
31081;SDS011;17737;52.586;13.284;2022-10-28T14:14:56;0.20;;;0.20;;
31081;SDS011;17737;52.586;13.284;2022-10-28T14:17:28;0.20;;;0.20;;
31081;SDS011;17737;52.586;13.284;2022-10-28T14:20:01;0.10;;;0.10;;
31081;SDS011;17737;52.586;13.284;2022-10-28T14:22:33;0.13;;;0.13;;
31081;SDS011;17737;52.586;13.284;2022-10-28T14:25:03;0.20;;;0.20;;
31081;SDS011;17737;52.586;13.284;2022-10-28T14:31:17;0.20;;;0.20;;
31081;SDS011;17737;52.586;13.284;2022-10-28T14:37:22;0.20;;;0.20;;
31081;SDS011;17737;52.586;13.284;2022-10-28T14:40:30;0.20;;;0.20;;
31081;SDS011;17737;52.586;13.284;2022-10-28T14:46:04;0.20;;;0.20;;
31081;SDS011;17737;52.586;13.284;2022-10-28T14:48:44;0.17;;;0.17;;
31081;SDS011;17737;52.586;13.284;2022-10-28T14:51:16;0.20;;;0.20;;
31081;SDS011;17737;52.586;13.284;2022-10-28T14:53:48;0.10;;;0.10;;
31081;SDS011;17737;52.586;13.284;2022-10-28T14:56:21;0.20;;;0.20;;
31081;SDS011;17737;52.586;13.284;2022-10-28T14:58:51;0.20;;;0.20;;
31081;SDS011;17737;52.586;13.284;2022-10-28T15:01:24;0.20;;;0.20;;
31081;SDS011;17737;52.586;13.284;2022-10-28T15:03:55;0.15;;;0.15;;
31081;SDS011;17737;52.586;13.284;2022-10-28T15:06:32;0.20;;;0.20;;
31081;SDS011;17737;52.586;13.284;2022-10-28T15:09:06;0.20;;;0.20;;
31081;SDS011;17737;52.586;13.284;2022-10-28T15:11:46;0.20;;;0.20;;
31081;SDS011;17737;52.586;13.284;2022-10-28T15:14:23;0.20;;;0.20;;
31081;SDS011;17737;52.586;13.284;2022-10-28T15:16:53;0.22;;;0.22;;
31081;SDS011;17737;52.586;13.284;2022-10-28T15:19:22;0.20;;;0.20;;
31081;SDS011;17737;52.586;13.284;2022-10-28T15:24:53;0.22;;;0.22;;
31081;SDS011;17737;52.586;13.284;2022-10-28T15:27:22;0.20;;;0.20;;
31081;SDS011;17737;52.586;13.284;2022-10-28T15:29:51;0.20;;;0.20;;
31081;SDS011;17737;52.586;13.284;2022-10-28T15:32:29;0.20;;;0.20;;
31081;SDS011;17737;52.586;13.284;2022-10-28T15:34:58;0.20;;;0.20;;
31081;SDS011;17737;52.586;13.284;2022-10-28T15:37:46;0.20;;;0.20;;
31081;SDS011;17737;52.586;13.284;2022-10-28T15:40:27;0.20;;;0.20;;
31081;SDS011;17737;52.586;13.284;2022-10-28T15:42:56;0.20;;;0.20;;
31081;SDS011;17737;52.586;13.284;2022-10-28T15:45:26;0.25;;;0.25;;
31081;SDS011;17737;52.586;13.284;2022-10-28T15:47:55;0.20;;;0.20;;
31081;SDS011;17737;52.586;13.284;2022-10-28T15:50:25;0.25;;;0.25;;
31081;SDS011;17737;52.586;13.284;2022-10-28T15:56:19;0.20;;;0.20;;
31081;SDS011;17737;52.586;13.284;2022-10-28T15:58:58;0.22;;;0.22;;
31081;SDS011;17737;52.586;13.284;2022-10-28T16:01:30;0.28;;;0.28;;